Lake Leelanau, Michigan
Current Conditions -  °F | °C
As of 1:53 AM on Tuesday 21 Oct 2014 (Local Time) from KTVC Reporting Station
Overcast Overcast  
Wind Chill:   Ceiling: 1400
Heat Index:   Visibility: 10mi
Dew Point:   Wind: 10mph
Humidity: 83%   Direction: 340°NNW
Pressure: 29.94"   Gusts: 18mph
Location:  44.98°N, 85.71°W
Report Text: KTVC 210553Z 34009G16KT 10SM OVC014 09/06 A2994 RMK AO2 RAE0455 SLP142 P0000 60000 T00890061 10089 20083 50002
Loading
Personal Weather Stations






























Interactive Weather Map
Tropical Storm Tracking
New forecast layout! Learn more

10-Day Weather Forecast

Advertisements
Track Severe Weather on mobile